createdAt,value
2024-02-28T00:00:19.237Z,7.20
2024-02-28T00:02:47.457Z,8.45
2024-02-28T00:05:16.405Z,7.68
2024-02-28T00:07:45.216Z,6.18
2024-02-28T00:10:14.089Z,7.10
2024-02-28T00:12:42.339Z,6.40
2024-02-28T00:15:12.334Z,6.43
2024-02-28T00:17:44.225Z,8.10
2024-02-28T00:20:14.088Z,7.75
2024-02-28T00:22:43.717Z,7.18
2024-02-28T00:25:13.933Z,5.72
2024-02-28T00:27:42.410Z,5.88
2024-02-28T00:30:12.217Z,6.95
2024-02-28T00:33:01.310Z,6.25
2024-02-28T00:35:30.965Z,6.70
2024-02-28T00:38:00.622Z,6.22
2024-02-28T00:40:29.848Z,6.22
2024-02-28T00:43:01.208Z,6.28
2024-02-28T00:45:29.441Z,6.72
2024-02-28T00:47:57.763Z,6.55
2024-02-28T00:50:27.141Z,7.57
2024-02-28T00:52:55.713Z,5.72
2024-02-28T00:55:23.925Z,6.68
2024-02-28T00:57:52.545Z,5.93
2024-02-28T01:00:21.220Z,6.10
2024-02-28T01:02:49.424Z,6.72
2024-02-28T01:05:17.642Z,6.22
2024-02-28T01:08:06.616Z,6.72
2024-02-28T01:10:35.815Z,4.45
2024-02-28T01:13:04.318Z,6.45
2024-02-28T01:15:35.530Z,6.13
2024-02-28T01:18:03.734Z,5.15
2024-02-28T01:20:31.969Z,6.38
2024-02-28T01:23:01.170Z,5.93
2024-02-28T01:25:29.367Z,4.38
2024-02-28T01:28:01.714Z,5.90
2024-02-28T01:30:30.019Z,5.35
2024-02-28T01:32:59.921Z,7.15
2024-02-28T01:35:28.125Z,6.72
2024-02-28T01:37:56.415Z,5.97
2024-02-28T01:40:25.212Z,5.40
2024-02-28T01:43:25.604Z,5.30
2024-02-28T01:45:53.869Z,5.53
2024-02-28T01:48:22.896Z,7.88
2024-02-28T01:50:51.138Z,6.85
2024-02-28T01:53:22.181Z,7.78
2024-02-28T01:55:50.873Z,5.65
2024-02-28T01:58:19.050Z,6.85
2024-02-28T02:00:49.230Z,5.75
2024-02-28T02:03:24.714Z,4.57
2024-02-28T02:05:52.928Z,4.97
2024-02-28T02:08:21.206Z,5.20
2024-02-28T02:10:49.508Z,5.38
2024-02-28T02:13:21.276Z,5.70
2024-02-28T02:15:49.534Z,4.40
2024-02-28T02:18:33.270Z,4.80
2024-02-28T02:21:06.779Z,4.55
2024-02-28T02:23:35.003Z,5.20
2024-02-28T02:26:03.894Z,4.18
2024-02-28T02:28:32.118Z,4.32
2024-02-28T02:31:01.198Z,5.47
2024-02-28T02:33:29.503Z,4.85
2024-02-28T02:35:58.196Z,6.18
2024-02-28T02:38:28.728Z,3.50
2024-02-28T02:40:57.147Z,4.35
2024-02-28T02:43:25.438Z,5.22
2024-02-28T02:45:53.762Z,5.95
2024-02-28T02:48:22.260Z,4.60
2024-02-28T02:50:50.787Z,4.05
2024-02-28T02:56:45.841Z,4.68
2024-02-28T02:59:14.101Z,5.32
2024-02-28T03:01:43.196Z,5.30
2024-02-28T03:04:11.401Z,4.10
2024-02-28T03:06:39.590Z,4.70
2024-02-28T03:09:09.160Z,4.65
2024-02-28T03:11:37.448Z,5.57
2024-02-28T03:14:05.931Z,4.07
2024-02-28T03:16:39.070Z,6.47
2024-02-28T03:19:07.772Z,3.60
2024-02-28T03:21:51.615Z,5.18
2024-02-28T03:24:20.177Z,6.70
2024-02-28T03:26:48.839Z,6.28
2024-02-28T03:30:08.925Z,6.00
2024-02-28T03:32:41.792Z,5.05
2024-02-28T03:35:10.484Z,6.43
2024-02-28T03:37:39.400Z,5.90
2024-02-28T03:40:10.059Z,5.95
2024-02-28T03:42:47.428Z,4.97
2024-02-28T03:45:15.826Z,4.47
2024-02-28T03:47:44.049Z,5.05
2024-02-28T03:50:12.815Z,5.22
2024-02-28T03:52:41.621Z,5.07
2024-02-28T03:55:10.142Z,4.78
2024-02-28T03:57:38.432Z,3.75
2024-02-28T04:00:07.311Z,4.43
2024-02-28T04:02:40.225Z,5.70
2024-02-28T04:05:08.959Z,4.35
2024-02-28T04:07:37.618Z,4.47
2024-02-28T04:10:06.576Z,4.55
2024-02-28T04:12:34.873Z,4.43
2024-02-28T04:15:03.142Z,6.35
2024-02-28T04:17:54.846Z,3.88
2024-02-28T04:20:32.163Z,3.78
2024-02-28T04:23:02.134Z,5.05
2024-02-28T04:25:30.672Z,3.67
2024-02-28T04:28:01.139Z,4.35
2024-02-28T04:30:29.497Z,5.15
2024-02-28T04:32:57.783Z,5.63
2024-02-28T04:35:28.573Z,5.00
2024-02-28T04:37:56.788Z,3.92
2024-02-28T04:40:24.964Z,4.75
2024-02-28T04:42:53.456Z,4.18
2024-02-28T04:45:22.404Z,3.85
2024-02-28T04:47:53.067Z,4.57
2024-02-28T04:50:21.268Z,4.90
2024-02-28T04:53:15.496Z,4.78
2024-02-28T04:55:43.701Z,4.85
2024-02-28T04:58:11.899Z,5.13
2024-02-28T05:00:40.138Z,4.55
2024-02-28T05:03:08.771Z,4.13
2024-02-28T05:05:37.059Z,5.43
2024-02-28T05:08:05.830Z,5.32
2024-02-28T05:10:35.541Z,3.78
2024-02-28T05:13:05.157Z,4.80
2024-02-28T05:15:33.443Z,4.70
2024-02-28T05:18:01.968Z,5.57
2024-02-28T05:20:30.671Z,4.80
2024-02-28T05:22:59.804Z,5.35
2024-02-28T05:25:28.206Z,4.55
2024-02-28T05:28:22.160Z,4.55
2024-02-28T05:30:51.267Z,5.15
2024-02-28T05:33:20.091Z,5.15
2024-02-28T05:35:48.336Z,4.68
2024-02-28T05:38:17.065Z,4.50
2024-02-28T05:40:45.349Z,5.55
2024-02-28T05:43:13.523Z,4.82
2024-02-28T05:45:41.711Z,4.40
2024-02-28T05:48:12.184Z,4.57
2024-02-28T05:50:40.893Z,5.85
2024-02-28T05:53:09.141Z,4.47
2024-02-28T05:55:37.296Z,4.15
2024-02-28T05:58:05.633Z,5.97
2024-02-28T06:00:34.143Z,4.82
2024-02-28T06:03:24.926Z,4.10
2024-02-28T06:06:01.169Z,4.65
2024-02-28T06:08:29.723Z,4.88
2024-02-28T06:10:57.973Z,5.30
2024-02-28T06:13:30.423Z,4.82
2024-02-28T06:15:59.755Z,4.60
2024-02-28T06:18:29.732Z,4.65
2024-02-28T06:20:59.705Z,5.50
2024-02-28T06:23:30.038Z,5.55
2024-02-28T06:26:00.305Z,5.78
2024-02-28T06:28:28.607Z,5.00
2024-02-28T06:30:56.883Z,5.07
2024-02-28T06:33:25.300Z,5.22
2024-02-28T06:35:53.601Z,4.97
2024-02-28T06:38:56.989Z,5.50
2024-02-28T06:41:25.925Z,5.28
2024-02-28T06:43:54.152Z,5.78
2024-02-28T06:46:22.382Z,5.00
2024-02-28T06:48:51.067Z,4.05
2024-02-28T06:51:19.724Z,5.38
2024-02-28T06:53:48.372Z,3.92
2024-02-28T06:56:16.693Z,5.13
2024-02-28T06:58:48.195Z,4.72
2024-02-28T07:01:16.579Z,5.07
2024-02-28T07:03:46.246Z,6.10
2024-02-28T07:06:15.128Z,5.22
2024-02-28T07:08:43.325Z,5.93
2024-02-28T07:11:18.441Z,4.90
2024-02-28T07:14:07.931Z,4.82
2024-02-28T07:16:36.167Z,4.50
2024-02-28T07:19:05.060Z,4.95
2024-02-28T07:21:33.768Z,6.00
2024-02-28T07:24:02.042Z,5.18
2024-02-28T07:26:32.081Z,5.93
2024-02-28T07:29:02.135Z,4.60
2024-02-28T07:31:30.411Z,5.70
2024-02-28T07:34:00.015Z,5.47
2024-02-28T07:36:28.245Z,5.60
2024-02-28T07:38:56.786Z,5.75
2024-02-28T07:41:25.017Z,4.68
2024-02-28T07:43:53.377Z,6.13
2024-02-28T07:46:23.805Z,5.65
2024-02-28T07:48:58.443Z,5.57
2024-02-28T07:51:27.051Z,5.95
2024-02-28T07:53:57.228Z,4.75
2024-02-28T07:56:29.740Z,5.95
2024-02-28T07:58:58.213Z,6.00
2024-02-28T08:01:32.063Z,4.82
2024-02-28T08:04:19.881Z,6.43
2024-02-28T08:06:53.573Z,5.38
2024-02-28T08:09:23.874Z,6.13
2024-02-28T08:11:52.244Z,5.60
2024-02-28T08:14:22.403Z,5.00
2024-02-28T08:17:26.457Z,5.57
2024-02-28T08:19:55.975Z,5.93
2024-02-28T08:22:26.268Z,4.65
2024-02-28T08:24:54.715Z,6.85
2024-02-28T08:27:24.722Z,5.85
2024-02-28T08:29:53.004Z,6.50
2024-02-28T08:32:21.794Z,6.03
2024-02-28T08:34:50.819Z,5.22
2024-02-28T08:37:20.099Z,6.53
2024-02-28T08:42:44.455Z,5.60
2024-02-28T08:45:45.592Z,6.18
2024-02-28T08:48:19.055Z,5.72
2024-02-28T08:50:48.592Z,5.68
2024-02-28T08:53:16.826Z,6.10
2024-02-28T08:55:45.075Z,6.22
2024-02-28T08:58:13.585Z,5.97
2024-02-28T09:00:42.212Z,6.90
2024-02-28T09:03:11.432Z,6.47
2024-02-28T09:05:39.728Z,7.10
2024-02-28T09:08:10.804Z,7.32
2024-02-28T09:10:41.110Z,7.47
2024-02-28T09:13:31.543Z,6.32
2024-02-28T09:16:00.723Z,6.53
2024-02-28T09:20:57.157Z,7.05
2024-02-28T09:23:25.413Z,7.38
2024-02-28T09:25:53.959Z,7.55
2024-02-28T09:28:22.205Z,8.02
2024-02-28T09:30:53.856Z,7.80
2024-02-28T09:33:23.311Z,8.30
2024-02-28T09:38:21.683Z,7.25
2024-02-28T09:40:50.291Z,8.63
2024-02-28T09:43:30.897Z,7.05
2024-02-28T09:46:02.470Z,7.90
2024-02-28T09:48:37.440Z,8.25
2024-02-28T09:51:06.665Z,7.90
2024-02-28T09:53:35.796Z,7.93
2024-02-28T09:56:04.795Z,7.93
2024-02-28T09:58:33.166Z,8.35
2024-02-28T10:01:05.707Z,9.05
2024-02-28T10:03:35.161Z,7.90
2024-02-28T10:06:05.768Z,7.80
2024-02-28T10:08:36.479Z,7.70
2024-02-28T10:11:07.257Z,8.05
2024-02-28T10:13:37.648Z,7.40
2024-02-28T10:16:08.849Z,7.72
2024-02-28T10:18:37.820Z,7.50
2024-02-28T10:21:06.835Z,7.65
2024-02-28T10:23:47.359Z,8.18
2024-02-28T10:26:15.606Z,7.75
2024-02-28T10:28:45.085Z,8.45
2024-02-28T10:31:14.024Z,8.57
2024-02-28T10:33:43.978Z,8.30
2024-02-28T10:36:13.110Z,7.50
2024-02-28T10:41:13.186Z,7.28
2024-02-28T10:43:49.713Z,7.97
2024-02-28T10:46:35.336Z,7.30
2024-02-28T10:49:08.742Z,7.80
2024-02-28T10:52:06.518Z,7.22
2024-02-28T10:54:39.831Z,7.72
2024-02-28T10:57:10.225Z,9.05
2024-02-28T10:59:41.612Z,8.30
2024-02-28T11:02:10.874Z,8.70
2024-02-28T11:04:39.566Z,9.43
2024-02-28T11:07:08.291Z,8.85
2024-02-28T11:09:38.553Z,8.65
2024-02-28T11:12:07.418Z,9.05
2024-02-28T11:14:37.933Z,10.10
2024-02-28T11:17:08.195Z,9.95
2024-02-28T11:22:36.385Z,9.80
2024-02-28T11:25:06.527Z,9.45
2024-02-28T11:27:34.865Z,9.10
2024-02-28T11:30:18.057Z,8.63
2024-02-28T11:32:46.593Z,9.63
2024-02-28T11:35:15.154Z,8.30
2024-02-28T11:37:52.403Z,8.57
2024-02-28T11:40:23.065Z,8.23
2024-02-28T11:42:51.362Z,8.88
2024-02-28T11:45:19.629Z,8.00
2024-02-28T11:48:23.431Z,8.93
2024-02-28T11:51:00.868Z,8.52
2024-02-28T11:53:30.146Z,8.25
2024-02-28T11:55:58.870Z,7.63
2024-02-28T11:58:27.271Z,8.20
2024-02-28T12:00:55.858Z,8.60
2024-02-28T12:05:54.458Z,7.75
2024-02-28T12:08:37.630Z,8.23
2024-02-28T12:11:11.613Z,8.30
2024-02-28T12:13:40.144Z,8.90
2024-02-28T12:16:19.558Z,8.20
2024-02-28T12:18:50.210Z,9.23
2024-02-28T12:21:18.661Z,7.03
2024-02-28T12:23:49.686Z,8.65
2024-02-28T12:26:22.308Z,7.63
2024-02-28T12:28:50.542Z,7.18
2024-02-28T12:31:21.488Z,7.72
2024-02-28T12:33:49.806Z,7.30
2024-02-28T12:36:18.714Z,8.13
2024-02-28T12:38:51.040Z,7.68
2024-02-28T12:41:21.093Z,7.57
2024-02-28T12:43:50.087Z,7.50
2024-02-28T12:46:18.471Z,8.52
2024-02-28T12:48:49.022Z,7.32
2024-02-28T12:51:40.714Z,6.63
2024-02-28T12:54:12.321Z,7.60
2024-02-28T12:56:41.175Z,7.43
2024-02-28T12:59:09.462Z,6.47
2024-02-28T13:01:39.415Z,8.43
2024-02-28T13:04:08.484Z,7.05
2024-02-28T13:09:07.434Z,7.50
2024-02-28T13:11:36.016Z,6.70
2024-02-28T13:14:04.669Z,7.30
2024-02-28T13:16:32.830Z,6.53
2024-02-28T13:19:02.182Z,7.07
2024-02-28T13:21:32.340Z,7.40
2024-02-28T13:24:11.591Z,6.75
2024-02-28T13:26:51.357Z,6.82
2024-02-28T13:29:19.778Z,7.65
2024-02-28T13:31:50.672Z,7.25
2024-02-28T13:34:19.451Z,7.15
2024-02-28T13:36:48.917Z,6.70
2024-02-28T13:39:17.754Z,7.15
2024-02-28T13:41:46.063Z,7.22
2024-02-28T13:44:14.285Z,6.53
2024-02-28T13:46:49.002Z,7.15
2024-02-28T13:49:17.494Z,7.40
2024-02-28T13:51:45.734Z,7.63
2024-02-28T13:54:13.919Z,7.38
2024-02-28T13:56:51.390Z,8.02
2024-02-28T13:59:19.616Z,7.22
2024-02-28T14:01:48.890Z,6.93
2024-02-28T14:04:17.289Z,7.18
2024-02-28T14:06:46.964Z,7.88
2024-02-28T14:09:16.612Z,7.90
2024-02-28T14:11:44.862Z,6.43
2024-02-28T14:14:13.221Z,7.07
2024-02-28T14:16:50.890Z,7.75
2024-02-28T14:19:31.591Z,8.70
2024-02-28T14:24:32.009Z,6.53
2024-02-28T14:27:04.770Z,7.53
2024-02-28T14:30:03.490Z,7.55
2024-02-28T14:32:31.772Z,7.32
2024-02-28T14:35:02.575Z,6.47
2024-02-28T14:37:31.267Z,6.28
2024-02-28T14:40:01.513Z,6.97
2024-02-28T14:42:30.230Z,6.68
2024-02-28T14:45:00.625Z,7.85
2024-02-28T14:47:28.939Z,6.25
2024-02-28T14:49:57.168Z,6.68
2024-02-28T14:52:26.305Z,6.68
2024-02-28T14:54:54.555Z,7.15
2024-02-28T14:57:23.476Z,6.00
2024-02-28T14:59:52.915Z,6.60
2024-02-28T15:02:21.261Z,5.88
2024-02-28T15:05:41.647Z,6.65
2024-02-28T15:08:12.585Z,6.78
2024-02-28T15:10:41.238Z,6.00
2024-02-28T15:13:10.677Z,5.28
2024-02-28T15:15:42.594Z,6.45
2024-02-28T15:18:15.530Z,5.43
2024-02-28T15:20:43.851Z,4.70
2024-02-28T15:23:23.190Z,5.35
2024-02-28T15:26:31.636Z,5.03
2024-02-28T15:29:09.150Z,5.97
2024-02-28T15:31:45.077Z,5.57
2024-02-28T15:34:13.758Z,5.05
2024-02-28T15:36:42.425Z,5.57
2024-02-28T15:39:10.897Z,5.13
2024-02-28T15:41:41.567Z,5.93
2024-02-28T15:44:13.470Z,5.60
2024-02-28T15:46:46.973Z,5.40
2024-02-28T15:49:18.164Z,5.38
2024-02-28T15:51:53.230Z,6.03
2024-02-28T15:54:21.998Z,5.50
2024-02-28T15:56:50.505Z,6.38
2024-02-28T15:59:27.068Z,6.70
2024-02-28T16:01:55.523Z,6.00
2024-02-28T16:04:23.741Z,5.72
2024-02-28T16:06:51.950Z,6.13
2024-02-28T16:09:28.548Z,5.85
2024-02-28T16:11:56.749Z,6.05
2024-02-28T16:14:25.462Z,5.82
2024-02-28T16:16:53.717Z,5.75
2024-02-28T16:19:28.073Z,5.75
2024-02-28T16:25:10.921Z,5.68
2024-02-28T16:27:40.853Z,6.03
2024-02-28T16:30:31.073Z,6.00
2024-02-28T16:33:03.279Z,6.65
2024-02-28T16:35:32.024Z,5.47
2024-02-28T16:38:04.733Z,6.25
2024-02-28T16:40:33.260Z,5.82
2024-02-28T16:43:03.360Z,5.90
2024-02-28T16:45:59.349Z,5.00
2024-02-28T16:48:28.014Z,5.22
2024-02-28T16:50:56.945Z,5.88
2024-02-28T16:53:31.474Z,5.43
2024-02-28T16:56:01.919Z,5.78
2024-02-28T16:58:32.584Z,6.40
2024-02-28T17:01:03.474Z,5.75
2024-02-28T17:03:32.193Z,5.75
2024-02-28T17:06:01.210Z,5.43
2024-02-28T17:08:29.937Z,5.55
2024-02-28T17:11:04.029Z,5.72
2024-02-28T17:13:38.928Z,5.43
2024-02-28T17:16:09.405Z,5.55
2024-02-28T17:18:37.681Z,5.47
2024-02-28T17:21:07.671Z,5.10
2024-02-28T17:23:43.804Z,5.72
2024-02-28T17:26:12.953Z,5.88
2024-02-28T17:31:10.149Z,4.68
2024-02-28T17:33:49.326Z,5.95
2024-02-28T17:36:22.968Z,5.28
2024-02-28T17:38:51.247Z,5.70
2024-02-28T17:41:19.665Z,6.30
2024-02-28T17:43:47.966Z,5.97
2024-02-28T17:46:16.242Z,5.47
2024-02-28T17:48:45.194Z,5.55
2024-02-28T17:51:13.443Z,4.47
2024-02-28T17:53:54.353Z,5.65
2024-02-28T17:56:22.574Z,5.65
2024-02-28T17:58:51.085Z,5.20
2024-02-28T18:01:19.332Z,5.18
2024-02-28T18:03:47.927Z,6.10
2024-02-28T18:06:16.517Z,15.73
2024-02-28T18:08:45.024Z,19.85
2024-02-28T18:11:14.067Z,8.20
2024-02-28T18:16:13.463Z,6.97
2024-02-28T18:18:41.729Z,5.25
2024-02-28T18:21:09.964Z,5.50
2024-02-28T18:23:38.257Z,4.88
2024-02-28T18:26:06.457Z,7.38
2024-02-28T18:29:33.837Z,5.82
2024-02-28T18:32:02.380Z,6.65
2024-02-28T18:34:34.486Z,5.82
2024-02-28T18:37:03.359Z,5.55
2024-02-28T18:39:39.862Z,7.38
2024-02-28T18:42:08.158Z,6.40
2024-02-28T18:44:38.706Z,5.68
2024-02-28T18:47:07.570Z,13.15
2024-02-28T18:49:36.216Z,8.45
2024-02-28T18:52:06.783Z,5.82
2024-02-28T18:54:38.751Z,8.18
2024-02-28T18:57:07.797Z,6.72
2024-02-28T18:59:36.442Z,5.60
2024-02-28T19:02:06.692Z,5.80
2024-02-28T19:04:36.190Z,5.50
2024-02-28T19:07:04.482Z,4.70
2024-02-28T19:09:32.698Z,4.72
2024-02-28T19:12:01.517Z,4.28
2024-02-28T19:14:38.080Z,5.60
2024-02-28T19:17:06.604Z,5.47
2024-02-28T19:19:36.843Z,5.88
2024-02-28T19:22:05.168Z,5.95
2024-02-28T19:24:33.435Z,4.93
2024-02-28T19:27:03.621Z,5.85
2024-02-28T19:29:38.578Z,5.05
2024-02-28T19:35:10.614Z,5.13
2024-02-28T19:37:39.486Z,5.22
2024-02-28T19:40:11.240Z,4.88
2024-02-28T19:42:39.559Z,4.63
2024-02-28T19:45:09.290Z,4.82
2024-02-28T19:47:37.636Z,5.78
2024-02-28T19:50:06.811Z,4.18
2024-02-28T19:52:35.372Z,4.75
2024-02-28T19:55:06.256Z,4.35
2024-02-28T19:57:34.775Z,4.82
2024-02-28T20:00:45.068Z,5.18
2024-02-28T20:03:13.572Z,5.63
2024-02-28T20:05:41.763Z,4.90
2024-02-28T20:08:11.801Z,4.18
2024-02-28T20:10:40.746Z,4.13
2024-02-28T20:13:09.313Z,4.30
2024-02-28T20:15:37.766Z,4.20
2024-02-28T20:18:06.832Z,4.47
2024-02-28T20:20:37.471Z,4.53
2024-02-28T20:23:12.532Z,4.38
2024-02-28T20:25:43.987Z,4.72
2024-02-28T20:29:06.895Z,4.75
2024-02-28T20:31:35.358Z,4.45
2024-02-28T20:34:03.662Z,4.95
2024-02-28T20:36:32.117Z,4.47
2024-02-28T20:39:10.848Z,4.45
2024-02-28T20:41:40.523Z,3.55
2024-02-28T20:44:12.820Z,4.20
2024-02-28T20:46:42.067Z,3.20
2024-02-28T20:51:41.917Z,4.15
2024-02-28T20:54:11.841Z,3.28
2024-02-28T20:57:01.628Z,3.95
2024-02-28T20:59:35.201Z,3.33
2024-02-28T21:04:31.313Z,3.38
2024-02-28T21:07:01.214Z,3.72
2024-02-28T21:09:29.652Z,4.05
2024-02-28T21:12:07.438Z,3.67
2024-02-28T21:14:35.791Z,3.45
2024-02-28T21:17:04.443Z,3.42
2024-02-28T21:19:33.043Z,2.83
2024-02-28T21:22:01.270Z,3.38
2024-02-28T21:24:55.129Z,3.65
2024-02-28T21:27:23.791Z,3.08
2024-02-28T21:29:53.978Z,3.63
2024-02-28T21:32:23.544Z,4.50
2024-02-28T21:34:51.806Z,3.00
2024-02-28T21:37:20.014Z,3.75
2024-02-28T21:39:49.325Z,3.60
2024-02-28T21:42:17.637Z,3.35
2024-02-28T21:44:45.927Z,3.55
2024-02-28T21:47:14.356Z,3.97
2024-02-28T21:49:43.118Z,3.17
2024-02-28T21:52:12.185Z,4.63
2024-02-28T21:54:43.934Z,3.83
2024-02-28T21:57:13.827Z,4.50
2024-02-28T22:00:00.657Z,3.88
2024-02-28T22:05:09.047Z,3.28
2024-02-28T22:07:37.254Z,4.28
2024-02-28T22:10:05.847Z,3.70
2024-02-28T22:12:37.683Z,3.63
2024-02-28T22:15:10.774Z,4.13
2024-02-28T22:17:39.166Z,4.10
2024-02-28T22:20:08.159Z,3.63
2024-02-28T22:22:36.367Z,4.18
2024-02-28T22:25:05.478Z,4.05
2024-02-28T22:27:33.664Z,4.90
2024-02-28T22:30:02.125Z,4.63
2024-02-28T22:32:30.316Z,4.20
2024-02-28T22:35:15.044Z,3.80
2024-02-28T22:37:44.090Z,4.10
2024-02-28T22:40:14.848Z,3.83
2024-02-28T22:42:43.098Z,4.10
2024-02-28T22:45:12.049Z,3.75
2024-02-28T22:47:40.238Z,4.10
2024-02-28T22:50:09.891Z,4.57
2024-02-28T22:52:38.173Z,4.00
2024-02-28T22:55:06.774Z,4.07
2024-02-28T22:57:43.033Z,3.95
2024-02-28T23:00:30.435Z,4.18
2024-02-28T23:03:29.979Z,3.55
2024-02-28T23:06:01.484Z,3.67
2024-02-28T23:08:30.594Z,4.40
2024-02-28T23:11:01.603Z,4.70
2024-02-28T23:13:30.845Z,3.67
2024-02-28T23:18:28.489Z,4.00
2024-02-28T23:20:58.163Z,3.65
2024-02-28T23:23:26.432Z,3.83
2024-02-28T23:25:54.707Z,4.05
2024-02-28T23:28:22.924Z,4.28
2024-02-28T23:30:52.316Z,3.70
2024-02-28T23:33:20.573Z,3.67
2024-02-28T23:35:49.547Z,3.28
2024-02-28T23:38:28.178Z,4.10
2024-02-28T23:40:56.398Z,4.30
2024-02-28T23:43:24.741Z,3.88
2024-02-28T23:45:53.003Z,3.97
2024-02-28T23:48:21.400Z,4.00
2024-02-28T23:50:55.614Z,4.00
2024-02-28T23:53:23.837Z,4.32
2024-02-28T23:55:52.416Z,4.88
2024-02-28T23:58:21.269Z,3.83
